Time;durP1;ratioP1;P1;durP2;ratioP2;P2;SDS_P1;SDS_P2;PMS_P1;PMS_P2;Temp;Humidity;BMP_temperature;BMP_pressure;BME280_temperature;BME280_humidity;BME280_pressure;Samples;Min_cycle;Max_cycle;Signal;HPM_P1;HPM_P2
2022/05/15 00:00:37;;;;;;;13.68;7.20;;;;;;;13.26;54.69;101464.72;691453;28;1037;-81
2022/05/15 00:00:58;;;;;;;14.68;6.70;;;;;;;13.25;54.81;101466.47;687176;28;1215;-81
2022/05/15 00:01:32;;;;;;;16.92;7.10;;;;;;;13.26;54.48;101470.88;683874;29;1320;-81
2022/05/15 00:01:53;;;;;;;18.52;7.80;;;;;;;13.24;54.76;101461.19;687858;28;1237;-81
2022/05/15 00:02:14;;;;;;;16.70;7.35;;;;;;;13.32;54.57;101469.28;690790;28;1044;-81
2022/05/15 00:02:35;;;;;;;14.40;6.80;;;;;;;13.34;54.83;101478.94;688011;28;969;-81
2022/05/15 00:02:56;;;;;;;14.70;6.38;;;;;;;13.28;54.63;101468.31;682710;29;1106;-81
2022/05/15 00:03:20;;;;;;;15.45;6.72;;;;;;;13.35;54.65;101479.84;687989;28;943;-81
2022/05/15 00:03:41;;;;;;;17.88;6.53;;;;;;;13.32;54.85;101475.38;688003;28;1387;-80
2022/05/15 00:04:02;;;;;;;18.08;7.00;;;;;;;13.26;54.93;101460.38;685232;28;1252;-81
2022/05/15 00:04:22;;;;;;;15.75;6.80;;;;;;;13.28;54.33;101468.31;685187;28;1267;-81
2022/05/15 00:04:43;;;;;;;14.37;6.77;;;;;;;13.30;54.56;101469.22;690647;28;966;-81
2022/05/15 00:05:04;;;;;;;16.55;6.50;;;;;;;13.31;54.50;101473.63;687928;28;1156;-81
2022/05/15 00:05:25;;;;;;;20.65;6.70;;;;;;;13.27;54.51;101461.28;693671;28;803;-81
2022/05/15 00:05:59;;;;;;;20.40;6.77;;;;;;;13.31;54.79;101473.63;685277;28;1204;-81
2022/05/15 00:06:20;;;;;;;17.63;6.90;;;;;;;13.31;54.80;101473.63;690266;28;1495;-81
2022/05/15 00:06:40;;;;;;;15.27;6.50;;;;;;;13.21;54.77;101453.25;693271;28;1131;-81
2022/05/15 00:07:02;;;;;;;14.15;6.50;;;;;;;13.29;54.59;101470.06;693557;28;910;-81
2022/05/15 00:07:22;;;;;;;15.93;6.22;;;;;;;13.20;54.95;101451.47;687748;28;1376;-81
2022/05/15 00:07:43;;;;;;;14.82;6.20;;;;;;;13.24;54.65;101463.81;690498;28;1256;-80
2022/05/15 00:08:05;;;;;;;16.83;6.50;;;;;;;13.23;54.85;101451.53;690568;28;1240;-81
2022/05/15 00:08:28;;;;;;;16.40;6.78;;;;;;;13.25;54.94;101465.56;690187;28;1338;-80
2022/05/15 00:08:48;;;;;;;14.98;6.43;;;;;;;13.24;54.74;101463.81;690580;28;1220;-81
2022/05/15 00:09:09;;;;;;;18.73;6.50;;;;;;;13.20;54.65;101454.09;685281;28;1299;-81
2022/05/15 00:09:30;;;;;;;18.25;6.10;;;;;;;13.25;54.51;101465.56;692899;28;1243;-81
2022/05/15 00:09:51;;;;;;;18.30;6.32;;;;;;;13.12;55.02;101446.91;687688;28;1156;-81
2022/05/15 00:10:11;;;;;;;13.23;6.33;;;;;;;13.19;55.04;101458.44;685168;28;1006;-80
2022/05/15 00:10:32;;;;;;;14.35;6.70;;;;;;;13.20;54.79;101461.97;687848;28;1229;-81
2022/05/15 00:10:53;;;;;;;13.65;6.60;;;;;;;13.20;54.83;101461.97;687924;28;1259;-82
2022/05/15 00:11:18;;;;;;;14.40;6.22;;;;;;;13.22;55.11;101462.88;690478;28;921;-81
2022/05/15 00:12:10;;;;;;;14.10;6.47;;;;;;;13.22;54.87;101463.75;692946;28;1121;-81
2022/05/15 00:12:31;;;;;;;14.80;6.90;;;;;;;13.18;55.03;101466.25;687483;28;1214;-80
2022/05/15 00:12:52;;;;;;;14.40;6.70;;;;;;;13.19;54.94;101463.69;690589;28;1278;-80
2022/05/15 00:13:13;;;;;;;13.27;6.47;;;;;;;13.18;55.12;101458.38;687339;28;1280;-81
2022/05/15 00:13:33;;;;;;;12.98;5.80;;;;;;;13.19;55.17;101457.53;693137;28;1397;-80
2022/05/15 00:13:57;;;;;;;13.48;6.00;;;;;;;13.19;55.26;101462.78;687857;28;1276;-81
2022/05/15 00:14:17;;;;;;;15.63;6.38;;;;;;;13.13;55.06;101450.38;687376;28;1349;-81
2022/05/15 00:14:38;;;;;;;15.30;7.05;;;;;;;13.14;54.82;101455.69;690494;28;922;-81
2022/05/15 00:14:59;;;;;;;14.65;6.72;;;;;;;13.14;55.24;101453.06;690651;28;1202;-82
2022/05/15 00:15:19;;;;;;;12.87;6.63;;;;;;;13.14;55.05;101455.69;685157;28;1055;-81
2022/05/15 00:15:41;;;;;;;14.55;6.22;;;;;;;13.14;55.44;101455.69;685128;28;925;-81
2022/05/15 00:16:02;;;;;;;15.93;6.53;;;;;;;13.16;55.31;101463.59;687881;28;1040;-81
2022/05/15 00:16:23;;;;;;;18.45;6.78;;;;;;;13.16;55.14;101459.22;690535;28;1408;-81
2022/05/15 00:16:44;;;;;;;17.92;7.07;;;;;;;13.15;55.42;101462.69;693022;28;1253;-81
2022/05/15 00:17:05;;;;;;;17.65;7.00;;;;;;;13.09;55.51;101452.03;690492;28;1323;-82
2022/05/15 00:17:26;;;;;;;15.50;6.82;;;;;;;13.11;55.04;101455.63;687861;28;1405;-81
2022/05/15 00:17:46;;;;;;;15.03;6.50;;;;;;;13.12;55.56;101456.47;687210;28;1347;-81
2022/05/15 00:18:08;;;;;;;15.00;6.75;;;;;;;13.18;55.28;101466.25;689542;28;1186;-80
2022/05/15 00:18:34;;;;;;;12.25;6.30;;;;;;;13.09;55.30;101452.03;693209;28;1924;-81
2022/05/15 00:18:55;;;;;;;11.20;6.20;;;;;;;13.08;55.33;101450.25;687313;28;1117;-81
2022/05/15 00:19:16;;;;;;;12.75;6.35;;;;;;;13.07;55.19;101448.50;690071;28;1188;-80
2022/05/15 00:19:36;;;;;;;13.43;6.30;;;;;;;13.13;55.22;101464.41;687292;28;1201;-81
2022/05/15 00:19:57;;;;;;;13.88;6.50;;;;;;;13.03;55.14;101446.59;687918;28;834;-81
2022/05/15 00:20:19;;;;;;;16.70;6.17;;;;;;;13.05;55.28;101444.94;681493;29;1351;-81
2022/05/15 00:20:40;;;;;;;16.30;6.07;;;;;;;13.07;55.40;101451.09;685159;28;1470;-81
2022/05/15 00:21:01;;;;;;;15.05;5.88;;;;;;;13.13;55.38;101464.41;687902;28;862;-81
2022/05/15 00:21:22;;;;;;;15.15;6.55;;;;;;;13.10;55.09;101461.66;685173;28;1047;-81
2022/05/15 00:21:43;;;;;;;17.50;6.88;;;;;;;13.07;55.38;101453.72;686874;28;1353;-81
2022/05/15 00:22:06;;;;;;;17.17;6.88;;;;;;;13.06;55.38;101454.59;690515;28;1051;-80
2022/05/15 00:22:27;;;;;;;18.70;7.32;;;;;;;13.04;55.60;101448.41;684719;28;1507;-81
2022/05/15 00:22:48;;;;;;;17.30;7.33;;;;;;;13.01;55.32;101449.22;685084;28;1070;-81
2022/05/15 00:23:11;;;;;;;14.30;7.05;;;;;;;13.09;55.24;101461.66;690467;28;968;-81
2022/05/15 00:23:31;;;;;;;12.07;5.90;;;;;;;13.06;55.39;101467.69;685102;28;1471;-82
2022/05/15 00:23:52;;;;;;;16.25;6.30;;;;;;;12.97;55.45;101447.31;685082;28;1193;-81
2022/05/15 00:24:13;;;;;;;16.42;6.40;;;;;;;13.08;55.36;101457.25;687803;28;1257;-81
2022/05/15 00:24:35;;;;;;;15.93;7.07;;;;;;;12.98;55.71;101451.72;685128;28;1061;-81
2022/05/15 00:24:56;;;;;;;12.95;6.65;;;;;;;13.02;55.53;101461.47;687827;28;816;-81
2022/05/15 00:25:17;;;;;;;13.63;6.50;;;;;;;13.02;55.72;101460.56;690026;28;1339;-81
2022/05/15 00:25:38;;;;;;;12.75;5.90;;;;;;;13.00;55.45;101450.06;687937;28;1067;-82
2022/05/15 00:25:59;;;;;;;17.50;6.50;;;;;;;12.99;55.71;101455.25;687875;28;792;-82
2022/05/15 00:26:20;;;;;;;20.73;6.80;;;;;;;12.95;55.71;101453.38;686982;28;1122;-81
2022/05/15 00:26:44;;;;;;;20.98;7.10;;;;;;;12.94;56.09;101451.59;687597;28;985;-81
2022/05/15 00:27:05;;;;;;;19.42;6.75;;;;;;;12.97;55.94;101457.81;682524;29;1272;-81
2022/05/15 00:27:25;;;;;;;15.45;6.55;;;;;;;12.92;56.12;101456.78;682358;29;962;-81
2022/05/15 00:27:55;;;;;;;12.87;6.40;;;;;;;12.97;55.87;101463.06;690202;28;1182;-82
2022/05/15 00:28:16;;;;;;;14.02;6.68;;;;;;;12.87;55.87;101445.25;685432;28;1563;-81
2022/05/15 00:28:37;;;;;;;18.33;7.68;;;;;;;12.93;55.88;101460.25;690542;28;1109;-81
2022/05/15 00:28:58;;;;;;;17.60;7.78;;;;;;;12.84;56.00;101446.06;690485;28;1295;-82
2022/05/15 00:29:18;;;;;;;18.50;7.22;;;;;;;12.89;55.87;101457.56;689483;28;1198;-81
2022/05/15 00:29:39;;;;;;;16.35;6.57;;;;;;;12.91;56.00;101460.22;687156;28;1347;-81
2022/05/15 00:30:00;;;;;;;17.23;6.40;;;;;;;12.89;55.81;101454.94;690610;28;775;-81
2022/05/15 00:30:22;;;;;;;14.60;6.40;;;;;;;12.86;56.08;101449.59;691814;28;1079;-81
2022/05/15 00:30:43;;;;;;;14.32;6.20;;;;;;;12.85;55.63;101445.22;690648;28;997;-81
2022/05/15 00:31:05;;;;;;;15.65;5.90;;;;;;;12.92;55.69;101466.34;685133;28;1053;-82
2022/05/15 00:31:27;;;;;;;16.95;6.35;;;;;;;12.93;56.06;101462.88;685080;28;1380;-81
2022/05/15 00:31:47;;;;;;;20.85;7.50;;;;;;;12.84;56.00;101453.91;692922;28;1164;-81
2022/05/15 00:32:08;;;;;;;16.60;7.07;;;;;;;12.86;56.06;101454.84;690407;28;1421;-81
2022/05/15 00:32:28;;;;;;;14.20;6.73;;;;;;;12.95;56.26;101463.84;687814;28;1135;-81
2022/05/15 00:32:50;;;;;;;11.52;5.85;;;;;;;12.93;56.18;101469.06;693124;28;1208;-81
2022/05/15 00:33:10;;;;;;;12.30;5.90;;;;;;;12.84;56.00;101451.28;690409;28;1219;-81
2022/05/15 00:33:31;;;;;;;10.82;5.32;;;;;;;12.87;55.73;101461.88;687865;28;1033;-81
2022/05/15 00:33:52;;;;;;;12.40;5.70;;;;;;;12.91;55.79;101462.81;689358;28;1373;-81
2022/05/15 00:34:13;;;;;;;12.60;6.00;;;;;;;12.88;56.09;101463.66;687743;28;1348;-81
2022/05/15 00:34:33;;;;;;;16.70;6.70;;;;;;;12.87;55.96;101460.97;685009;28;1331;-81
2022/05/15 00:34:54;;;;;;;16.37;6.50;;;;;;;12.84;55.98;101456.53;687689;28;1217;-81
2022/05/15 00:35:15;;;;;;;16.33;6.38;;;;;;;12.91;55.92;101468.06;690526;28;1119;-81
2022/05/15 00:35:37;;;;;;;15.00;6.15;;;;;;;12.91;56.11;101473.31;687870;28;977;-81
2022/05/15 00:35:58;;;;;;;15.30;6.70;;;;;;;12.86;56.16;101465.31;687823;28;883;-81
2022/05/15 00:36:19;;;;;;;16.23;6.67;;;;;;;12.92;56.36;101466.34;687733;28;1152;-81
2022/05/15 00:36:39;;;;;;;18.40;6.35;;;;;;;12.89;56.34;101468.03;692141;28;1216;-81
2022/05/15 00:37:00;;;;;;;17.42;6.30;;;;;;;12.82;56.27;101455.59;690606;28;827;-82
2022/05/15 00:37:21;;;;;;;18.63;6.40;;;;;;;12.89;56.15;101470.66;687782;28;1136;-81
2022/05/15 00:37:41;;;;;;;16.33;6.28;;;;;;;12.87;56.14;101463.59;685063;28;982;-81
2022/05/15 00:38:04;;;;;;;18.00;6.30;;;;;;;12.87;56.11;101461.88;693501;28;1024;-82
2022/05/15 00:38:24;;;;;;;15.65;6.22;;;;;;;12.85;55.55;101458.31;687654;28;1916;-83
2022/05/15 00:38:45;;;;;;;17.40;6.50;;;;;;;12.89;55.90;101469.75;687717;28;1126;-81
2022/05/15 00:39:07;;;;;;;17.60;6.55;;;;;;;12.83;56.33;101457.38;687624;28;1219;-81
2022/05/15 00:39:27;;;;;;;15.80;6.22;;;;;;;12.85;56.21;101463.53;687512;28;1387;-81
2022/05/15 00:39:48;;;;;;;15.27;5.90;;;;;;;12.79;56.45;101457.25;684634;28;1100;-81
2022/05/15 00:40:09;;;;;;;14.68;5.95;;;;;;;12.84;56.32;101467.00;690496;28;1335;-81
2022/05/15 00:40:31;;;;;;;15.98;6.50;;;;;;;12.79;56.24;101465.97;690518;28;1372;-82
2022/05/15 00:40:51;;;;;;;17.15;6.60;;;;;;;12.81;56.34;101463.41;685120;28;1235;-81
2022/05/15 00:41:13;;;;;;;17.75;6.97;;;;;;;12.81;56.38;101469.56;687803;28;986;-81
2022/05/15 00:41:34;;;;;;;17.65;7.05;;;;;;;12.77;56.43;101464.19;687232;28;1543;-81
2022/05/15 00:41:55;;;;;;;16.05;6.90;;;;;;;12.79;56.38;101468.59;690357;28;1208;-81
2022/05/15 00:42:16;;;;;;;11.55;5.90;;;;;;;12.75;56.34;101464.13;690638;28;1283;-81
2022/05/15 00:42:37;;;;;;;10.63;5.78;;;;;;;12.78;56.34;101466.81;687676;28;947;-82
2022/05/15 00:42:57;;;;;;;12.03;5.97;;;;;;;12.76;56.41;101465.88;687893;28;1021;-81
2022/05/15 00:43:40;;;;;;;13.30;6.07;;;;;;;12.74;56.42;101460.59;687576;28;1210;-81
2022/05/15 00:44:01;;;;;;;12.80;6.13;;;;;;;12.75;56.41;101461.50;693176;28;1431;-81
2022/05/15 00:44:28;;;;;;;11.85;5.60;;;;;;;12.73;56.40;101460.56;687693;28;1232;-81
2022/05/15 00:44:49;;;;;;;14.90;5.93;;;;;;;12.76;56.31;101465.88;684923;28;1284;-81
2022/05/15 00:45:13;;;;;;;19.52;7.25;;;;;;;12.79;56.22;101470.34;687797;28;1121;-81
2022/05/15 00:45:34;;;;;;;18.83;7.28;;;;;;;12.75;56.32;101464.13;687836;28;1032;-81
2022/05/15 00:45:55;;;;;;;17.27;6.88;;;;;;;12.70;56.34;101455.22;690389;28;1200;-81
2022/05/15 00:46:37;;;;;;;13.77;6.30;;;;;;;12.70;56.18;101465.69;687837;28;1119;-81
2022/05/15 00:46:58;;;;;;;13.27;6.00;;;;;;;12.73;56.52;101473.66;685140;28;1211;-81
2022/05/15 00:47:20;;;;;;;16.45;6.40;;;;;;;12.65;56.61;101459.47;685020;28;1265;-81
2022/05/15 00:47:41;;;;;;;17.48;6.70;;;;;;;12.71;56.71;101465.75;690282;28;1188;-81
2022/05/15 00:48:02;;;;;;;16.95;6.47;;;;;;;12.69;56.43;101461.31;685329;28;1372;-82
2022/05/15 00:48:22;;;;;;;15.82;6.10;;;;;;;12.66;56.44;101456.00;687920;28;768;-81
2022/05/15 00:48:44;;;;;;;14.70;6.20;;;;;;;12.73;56.80;101469.31;685144;28;1088;-81
2022/05/15 00:49:11;;;;;;;15.63;6.70;;;;;;;12.74;56.60;101462.34;690074;28;1241;-82
2022/05/15 00:49:34;;;;;;;15.65;6.65;;;;;;;12.75;56.57;101467.63;690076;28;1043;-81
2022/05/15 00:49:56;;;;;;;15.60;6.30;;;;;;;12.68;56.53;101454.28;690355;28;1230;-81
2022/05/15 00:50:25;;;;;;;12.40;5.80;;;;;;;12.76;56.73;101468.50;687789;28;973;-81
2022/05/15 00:50:45;;;;;;;14.95;6.40;;;;;;;12.71;56.72;101451.75;693089;28;1169;-81
2022/05/15 00:51:34;;;;;;;16.38;7.00;;;;;;;12.80;56.70;101465.16;690034;28;1204;-81
2022/05/15 00:52:01;;;;;;;16.88;6.40;;;;;;;12.74;56.76;101454.50;685500;28;1170;-82
2022/05/15 00:52:28;;;;;;;17.50;6.50;;;;;;;12.78;56.75;101455.47;690601;28;858;-81
2022/05/15 00:52:54;;;;;;;13.77;6.50;;;;;;;12.77;56.79;101465.03;693048;28;1106;-81
2022/05/15 00:53:15;;;;;;;12.30;6.45;;;;;;;12.73;56.90;101463.19;687835;28;1080;-81
2022/05/15 00:53:39;;;;;;;11.77;6.22;;;;;;;12.65;56.94;101448.97;690339;28;1480;-81
2022/05/15 00:54:07;;;;;;;11.38;5.90;;;;;;;12.71;56.76;101444.81;690438;28;1315;-81
2022/05/15 00:54:35;;;;;;;12.63;5.78;;;;;;;12.70;57.02;101460.47;693174;28;922;-81
2022/05/15 00:55:02;;;;;;;16.85;6.10;;;;;;;12.69;56.87;101458.69;693125;28;1355;-81
2022/05/15 00:55:46;;;;;;;17.80;6.10;;;;;;;12.65;56.92;101454.22;693270;28;835;-81
2022/05/15 00:56:07;;;;;;;13.90;6.13;;;;;;;12.62;56.91;101452.38;686959;28;1278;-81
2022/05/15 00:56:32;;;;;;;13.63;6.22;;;;;;;12.63;57.12;101453.25;687815;28;941;-81
2022/05/15 00:57:04;;;;;;;16.50;6.45;;;;;;;12.66;56.93;101453.38;685833;28;732;-81
2022/05/15 00:57:40;;;;;;;20.10;6.78;;;;;;;12.67;56.72;101460.38;690381;28;1073;-81
2022/05/15 00:58:28;;;;;;;15.40;6.50;;;;;;;12.59;56.57;101447.94;693264;28;846;-81
2022/05/15 00:58:54;;;;;;;13.55;6.40;;;;;;;12.67;57.10;101465.63;695840;28;1318;-81
2022/05/15 00:59:19;;;;;;;18.05;6.13;;;;;;;12.54;57.02;101436.44;685296;28;1034;-81
2022/05/15 01:00:07;;;;;;;20.42;6.43;;;;;;;12.56;57.15;101445.25;687500;28;1013;-82
2022/05/15 01:00:31;;;;;;;16.95;7.38;;;;;;;12.53;57.14;101439.03;682420;28;1636;-81
2022/05/15 01:00:53;;;;;;;14.70;6.97;;;;;;;12.57;57.35;101451.34;686891;28;1170;-82
2022/05/15 01:01:17;;;;;;;17.00;7.38;;;;;;;12.59;57.02;101455.78;687046;28;1295;-81
2022/05/15 01:01:38;;;;;;;17.48;7.13;;;;;;;12.51;57.24;101441.59;684930;28;971;-81
2022/05/15 01:02:13;;;;;;;14.40;6.95;;;;;;;12.52;57.19;101451.22;687668;28;1270;-81
2022/05/15 01:03:08;;;;;;;14.95;6.70;;;;;;;12.50;57.38;101452.91;687784;28;978;-81
2022/05/15 01:03:28;;;;;;;18.00;6.35;;;;;;;12.44;57.46;101442.22;687408;28;1229;-82
2022/05/15 01:03:49;;;;;;;19.60;6.37;;;;;;;12.47;57.40;101439.69;690589;28;1167;-81
2022/05/15 01:04:09;;;;;;;17.10;6.20;;;;;;;12.49;57.23;101443.28;690263;28;1311;-81
2022/05/15 01:04:31;;;;;;;19.65;6.55;;;;;;;12.49;57.47;101456.38;688376;28;760;-81
2022/05/15 01:04:52;;;;;;;18.00;6.35;;;;;;;12.46;57.26;101443.16;688355;28;1230;-81
2022/05/15 01:05:15;;;;;;;19.42;6.65;;;;;;;12.46;57.03;101454.53;688393;28;962;-81
2022/05/15 01:05:40;;;;;;;14.35;6.63;;;;;;;12.53;57.20;101455.59;688266;28;985;-81
2022/05/15 01:06:02;;;;;;;13.43;6.30;;;;;;;12.47;57.20;101450.16;688185;28;1139;-81
2022/05/15 01:06:25;;;;;;;17.15;6.70;;;;;;;12.42;57.26;101441.31;691017;28;1138;-81
2022/05/15 01:06:46;;;;;;;19.55;7.03;;;;;;;12.49;57.51;101453.75;690919;28;1214;-81
2022/05/15 01:07:08;;;;;;;19.88;7.53;;;;;;;12.46;57.27;101453.63;690998;28;1392;-82
2022/05/15 01:07:29;;;;;;;17.05;7.50;;;;;;;12.40;57.51;101451.72;688321;28;1376;-81
2022/05/15 01:07:49;;;;;;;14.35;7.03;;;;;;;12.45;57.39;101446.63;688189;28;1147;-81
2022/05/15 01:08:11;;;;;;;14.00;6.73;;;;;;;12.49;57.37;101458.97;687828;28;1191;-81
2022/05/15 01:08:31;;;;;;;18.00;6.43;;;;;;;12.47;57.23;101458.94;690997;28;1243;-81
2022/05/15 01:08:54;;;;;;;17.17;6.63;;;;;;;12.40;57.41;101443.00;693354;28;1308;-81
2022/05/15 01:09:15;;;;;;;17.38;6.78;;;;;;;12.39;57.20;101449.03;685673;28;1222;-81
2022/05/15 01:09:36;;;;;;;14.20;6.75;;;;;;;12.41;57.48;101457.84;685235;28;950;-82
2022/05/15 01:09:59;;;;;;;13.40;6.60;;;;;;;12.38;57.37;101450.78;688193;28;753;-81
2022/05/15 01:10:20;;;;;;;13.07;6.10;;;;;;;12.33;57.40;101444.50;685569;28;1223;-81
2022/05/15 01:10:45;;;;;;;13.75;6.22;;;;;;;12.42;57.51;101457.88;688287;28;1311;-81
2022/05/15 01:11:12;;;;;;;12.15;6.35;;;;;;;12.41;57.46;101456.09;687762;28;1261;-81
2022/05/15 01:11:34;;;;;;;12.65;6.40;;;;;;;12.45;57.68;101459.72;693495;28;1266;-80
2022/05/15 01:11:57;;;;;;;12.95;6.50;;;;;;;12.45;57.62;101454.47;687958;28;1130;-81
2022/05/15 01:12:18;;;;;;;12.10;6.20;;;;;;;12.43;57.82;101458.78;682851;29;990;-81
2022/05/15 01:12:40;;;;;;;14.35;6.90;;;;;;;12.43;57.52;101459.66;688200;28;1130;-81
2022/05/15 01:13:01;;;;;;;13.60;6.80;;;;;;;12.39;57.72;101451.66;688232;28;1407;-82
2022/05/15 01:13:23;;;;;;;14.23;7.00;;;;;;;12.43;57.75;101464.03;691039;28;1272;-82
2022/05/15 01:13:46;;;;;;;14.55;6.80;;;;;;;12.36;57.74;101442.00;688155;28;1259;-81
2022/05/15 01:14:11;;;;;;;14.80;6.53;;;;;;;12.38;57.68;101447.25;688152;28;1206;-81
2022/05/15 01:14:32;;;;;;;15.50;5.90;;;;;;;12.38;57.78;101457.75;685516;28;1223;-81
2022/05/15 01:14:53;;;;;;;17.65;6.10;;;;;;;12.39;57.82;101457.78;682958;28;1140;-81
2022/05/15 01:15:19;;;;;;;18.05;6.60;;;;;;;12.34;57.90;101449.81;685579;28;1238;-81
2022/05/15 01:15:42;;;;;;;17.38;6.53;;;;;;;12.35;57.76;101455.91;689832;28;1156;-81
2022/05/15 01:16:07;;;;;;;16.13;6.75;;;;;;;12.34;58.12;101457.66;690995;28;1142;-81
2022/05/15 01:16:28;;;;;;;16.98;6.75;;;;;;;12.33;57.95;101455.88;691080;28;775;-81
2022/05/15 01:17:01;;;;;;;15.40;6.75;;;;;;;12.29;57.85;101446.13;690838;28;1459;-81
2022/05/15 01:17:23;;;;;;;18.38;6.80;;;;;;;12.27;57.82;101447.81;693264;28;1541;-81
2022/05/15 01:17:43;;;;;;;19.35;6.97;;;;;;;12.23;58.11;101445.94;688322;28;1025;-81
2022/05/15 01:18:05;;;;;;;16.00;6.43;;;;;;;12.32;58.22;101456.72;688270;28;1146;-81
2022/05/15 01:18:32;;;;;;;15.70;6.22;;;;;;;12.32;58.13;101461.06;692680;28;1912;-81
2022/05/15 01:18:57;;;;;;;17.38;6.40;;;;;;;12.21;58.12;101439.78;688328;28;1332;-81
2022/05/15 01:19:31;;;;;;;15.52;6.63;;;;;;;12.28;58.29;101452.22;687908;28;1339;-81
2022/05/15 01:20:07;;;;;;;17.40;6.68;;;;;;;12.31;58.27;101451.44;693609;28;893;-81
2022/05/15 01:20:29;;;;;;;16.45;6.50;;;;;;;12.27;58.10;101449.53;691438;28;1309;-81
2022/05/15 01:20:55;;;;;;;18.00;6.70;;;;;;;12.31;58.14;101465.38;690986;28;910;-81
2022/05/15 01:21:24;;;;;;;21.00;6.93;;;;;;;12.21;58.22;101442.41;696236;28;1163;-81
2022/05/15 01:21:57;;;;;;;18.77;7.00;;;;;;;12.27;58.24;101452.16;690759;28;1340;-81
2022/05/15 01:22:19;;;;;;;13.43;6.20;;;;;;;12.24;58.26;101447.75;690844;28;1106;-81
2022/05/15 01:22:40;;;;;;;16.88;6.00;;;;;;;12.19;58.30;101446.69;690923;28;1203;-81
2022/05/15 01:23:01;;;;;;;16.80;6.22;;;;;;;12.23;58.41;101445.94;688279;28;1270;-82
2022/05/15 01:23:23;;;;;;;18.80;6.80;;;;;;;12.28;58.49;101467.06;691157;28;1262;-81
2022/05/15 01:23:44;;;;;;;12.48;6.38;;;;;;;12.20;58.48;101449.38;693633;28;1290;-81
2022/05/15 01:24:07;;;;;;;12.60;6.50;;;;;;;12.23;58.51;101451.16;691050;28;1072;-81
2022/05/15 01:24:28;;;;;;;14.73;7.20;;;;;;;12.28;58.28;101460.06;688365;28;923;-81
2022/05/15 01:24:49;;;;;;;14.90;7.10;;;;;;;12.28;58.51;101459.19;693622;28;1232;-82
2022/05/15 01:25:15;;;;;;;14.43;6.97;;;;;;;12.26;58.17;101456.53;690191;28;1191;-81
2022/05/15 01:25:37;;;;;;;14.05;6.28;;;;;;;12.31;58.11;101462.78;693647;28;882;-81
2022/05/15 01:26:00;;;;;;;16.38;6.68;;;;;;;12.22;58.44;101449.41;693673;28;1442;-81
2022/05/15 01:26:24;;;;;;;18.83;6.63;;;;;;;12.29;58.27;101454.00;693049;28;1278;-81
2022/05/15 01:26:45;;;;;;;17.90;7.10;;;;;;;12.21;58.49;101452.84;688081;28;1187;-81
2022/05/15 01:27:12;;;;;;;14.97;6.80;;;;;;;12.18;58.14;101439.69;693525;28;1146;-81
2022/05/15 01:27:33;;;;;;;16.95;7.10;;;;;;;12.25;58.21;101457.38;688270;28;1080;-81
2022/05/15 01:28:08;;;;;;;18.20;7.13;;;;;;;12.23;58.63;101461.63;688131;28;1713;-81
2022/05/15 01:28:30;;;;;;;17.90;7.22;;;;;;;12.24;58.53;101458.22;687749;28;1236;-81
2022/05/15 01:29:00;;;;;;;17.17;7.20;;;;;;;12.25;58.38;101459.97;688176;28;1097;-81
2022/05/15 01:29:30;;;;;;;20.02;6.80;;;;;;;12.20;58.49;101457.22;685545;28;1540;-81
2022/05/15 01:29:50;;;;;;;20.63;6.97;;;;;;;12.23;58.27;101453.78;685357;28;1031;-81
2022/05/15 01:30:13;;;;;;;19.17;6.93;;;;;;;12.26;58.34;101466.09;685550;28;1454;-81
2022/05/15 01:30:37;;;;;;;18.73;6.70;;;;;;;12.17;58.61;101456.22;685357;28;1374;-80
2022/05/15 01:30:57;;;;;;;18.27;6.55;;;;;;;12.16;58.70;101449.22;685442;28;827;-81
2022/05/15 01:31:18;;;;;;;17.17;6.90;;;;;;;12.23;58.52;101456.41;685469;28;1190;-81
2022/05/15 01:31:39;;;;;;;15.00;6.80;;;;;;;12.19;58.72;101455.41;693503;28;1061;-81
2022/05/15 01:32:01;;;;;;;15.68;7.10;;;;;;;12.15;58.67;101450.94;696462;28;1467;-81
2022/05/15 01:32:22;;;;;;;15.57;7.07;;;;;;;12.19;58.70;101457.16;688188;28;1399;-81
2022/05/15 01:32:42;;;;;;;13.82;6.93;;;;;;;12.16;58.82;101455.34;688269;28;989;-81
2022/05/15 01:33:03;;;;;;;13.97;6.60;;;;;;;12.19;58.61;101459.78;685484;28;1133;-81
2022/05/15 01:33:24;;;;;;;13.32;6.18;;;;;;;12.20;58.82;101461.56;693811;28;774;-81
2022/05/15 01:33:47;;;;;;;12.48;6.15;;;;;;;12.13;58.76;101452.63;690878;28;985;-81
2022/05/15 01:34:10;;;;;;;10.30;6.00;;;;;;;12.18;58.68;101447.53;688351;28;1060;-81
2022/05/15 01:34:32;;;;;;;14.35;6.50;;;;;;;12.16;58.82;101457.06;688139;28;1371;-81
2022/05/15 01:34:53;;;;;;;19.03;6.90;;;;;;;12.12;59.01;101447.34;689947;28;1708;-81
2022/05/15 01:35:14;;;;;;;23.13;7.30;;;;;;;12.18;58.93;101463.25;690851;28;1276;-81
2022/05/15 01:35:35;;;;;;;18.98;6.88;;;;;;;12.12;58.94;101447.34;688156;28;1486;-81
2022/05/15 01:35:57;;;;;;;16.30;6.80;;;;;;;12.13;58.89;101449.09;685426;28;1388;-82
2022/05/15 01:36:22;;;;;;;16.35;6.82;;;;;;;12.11;59.03;101445.56;687485;28;1160;-80
2022/05/15 01:36:42;;;;;;;18.27;7.53;;;;;;;12.07;59.12;101440.22;688080;28;1154;-81
2022/05/15 01:37:04;;;;;;;19.00;7.40;;;;;;;12.11;58.97;101443.81;685568;28;1041;-81
2022/05/15 01:37:26;;;;;;;21.48;7.32;;;;;;;12.19;59.11;101459.78;687725;28;1347;-80
2022/05/15 01:37:47;;;;;;;21.85;7.75;;;;;;;12.06;59.00;101443.66;688255;28;1278;-81
2022/05/15 01:38:09;;;;;;;20.25;7.95;;;;;;;12.16;59.06;101464.94;685348;28;1077;-81
2022/05/15 01:38:33;;;;;;;16.58;7.35;;;;;;;12.04;59.15;101447.97;688161;28;1972;-81
2022/05/15 01:38:55;;;;;;;16.98;6.90;;;;;;;12.09;59.23;101453.34;693459;28;1249;-80
2022/05/15 01:39:16;;;;;;;18.00;7.45;;;;;;;12.04;59.14;101442.72;690978;28;1214;-80
2022/05/15 01:39:37;;;;;;;18.35;7.47;;;;;;;12.09;59.01;101444.63;690388;28;1231;-80
2022/05/15 01:39:58;;;;;;;16.73;6.80;;;;;;;12.04;59.23;101444.47;690986;28;779;-81
2022/05/15 01:40:20;;;;;;;16.75;6.43;;;;;;;12.10;59.11;101447.28;682800;28;1118;-81
2022/05/15 01:40:41;;;;;;;20.58;7.10;;;;;;;12.11;59.12;101456.03;690947;28;1245;-81
2022/05/15 01:41:03;;;;;;;22.70;7.75;;;;;;;12.06;59.23;101448.03;688258;28;1225;-81
2022/05/15 01:41:25;;;;;;;18.85;8.10;;;;;;;12.03;59.15;101447.91;690551;28;1208;-81
2022/05/15 01:41:46;;;;;;;19.48;8.38;;;;;;;12.07;59.12;101448.06;685569;28;1216;-81
2022/05/15 01:42:06;;;;;;;17.67;8.00;;;;;;;12.07;59.32;101455.03;690934;28;1121;-80
2022/05/15 01:42:28;;;;;;;20.25;8.10;;;;;;;12.05;59.10;101452.34;690805;28;1153;-82
2022/05/15 01:42:49;;;;;;;20.05;7.80;;;;;;;12.01;59.26;101445.28;693546;28;1176;-81
2022/05/15 01:43:09;;;;;;;19.17;7.50;;;;;;;12.02;59.23;101451.38;688159;28;1195;-81
2022/05/15 01:43:30;;;;;;;17.47;7.37;;;;;;;12.04;59.06;101454.94;688367;28;764;-80
2022/05/15 01:43:54;;;;;;;15.98;7.35;;;;;;;11.95;59.15;101437.22;690804;28;1323;-81
2022/05/15 01:44:17;;;;;;;15.73;7.30;;;;;;;12.01;58.98;101450.50;685130;28;1017;-80
2022/05/15 01:44:38;;;;;;;12.85;6.95;;;;;;;12.03;59.19;101448.81;689938;28;1298;-81
2022/05/15 01:44:59;;;;;;;13.23;7.18;;;;;;;12.05;58.96;101461.94;690879;28;1141;-81
2022/05/15 01:45:20;;;;;;;15.60;7.80;;;;;;;12.01;59.09;101450.50;690970;28;1091;-81
2022/05/15 01:45:41;;;;;;;15.82;7.70;;;;;;;12.02;59.14;101452.28;685552;28;1089;-81
2022/05/15 01:46:02;;;;;;;16.98;7.80;;;;;;;12.02;59.00;101457.50;685552;28;989;-81
2022/05/15 01:46:25;;;;;;;14.33;7.40;;;;;;;11.99;59.19;101449.53;691074;28;866;-81
2022/05/15 01:46:46;;;;;;;18.55;6.85;;;;;;;12.01;59.36;101455.72;688242;28;1487;-81
2022/05/15 01:47:10;;;;;;;18.00;6.90;;;;;;;11.92;59.35;101437.09;688291;28;1271;-81
2022/05/15 01:47:32;;;;;;;17.60;6.80;;;;;;;11.97;59.27;101452.97;687631;28;1387;-81
2022/05/15 01:47:54;;;;;;;15.07;7.00;;;;;;;11.93;59.27;101451.97;690872;28;1239;-81
2022/05/15 01:48:16;;;;;;;19.00;7.45;;;;;;;11.96;59.15;101452.06;693519;28;1255;-81
2022/05/15 01:48:37;;;;;;;24.48;7.60;;;;;;;11.98;59.42;101460.84;693720;28;982;-81
2022/05/15 01:49:03;;;;;;;20.20;7.28;;;;;;;11.89;59.33;101447.47;688735;28;1654;-80
2022/05/15 01:49:24;;;;;;;17.55;7.30;;;;;;;11.91;59.17;101454.53;693410;28;1347;-80